Airfield :
LOGIN :

Register | Disclaimer

   EN    FR    IT 

 










Legend :    VFR   Marginal VFR   IFR   Intensive IFR   Very Intensive IFR
Visi :
Ceiling :
>= 8 km
>= 3000ft
5 to 8 km
1000 to 3000 ft
1500m to 5 km
500 to 1000 ft
800 to 1500m
200 to 500 ft
< 800m
< 200 ft
Symbols :   Thunderstorms  Fog  Heavy snow  Heavy precipitations  Wind > 20 kt
SIGMETs :     Misc.  Thunderstorms  Icing  Turbulence  Mountain Waves  Volcanic Ashes






- Airport Elevation : 13 ft
- IATA code : OST


EBOS - Oostend bruges Int.

CURRENT METAR :
  • 290820Z 04014G26KT 9999 FEW016 06/01 Q1031 NOSIG

EXPIRED METARs :
  • 290750Z 05010KT 9999 FEW006 04/M00 Q1031 TEMPO 02024G36KT
  • 290720Z 04020G33KT 6000 -SHSN SCT006 BKN012 BKN048 02/00 Q1032 TEMPO 4500 SHRA
  • 290650Z 03011KT 9999 FEW015 04/01 Q1031 TEMPO 4500 SHRA BECMG 02024G36KT
  • 290620Z 05020G30KT 7000 VCSH FEW006 SCT015 02/00 Q1031 TEMPO 4500 SHRA
  • 290550Z 02022G36KT 9999 FEW030 SCT040 05/M01 Q1030 TEMPO 4500 SHRA

TAF TAF EBOS
Valid from the 29 at 06:00 until the 30 at 12:00 UTC


290510Z 2906/3012 03021G32KT 9999 SCT016
PROB40
TEMPO 2906/2912 4000 SHRAGS BKN014TCU
TEMPO 2908/2917 04028G42KT
BECMG 3000/3002 05012KT



MET'MAP, your aeronautical weather chart ! - Copyright ORBIFLY December 2007 - Disclaimer

ORBIFLY MET'MAP TEAM :

Programming & Development : Alexandra Zaïnal
Concept & original design : Baudouin d'Aumeries
Assistance for programming : Marc-Olivier Méhu
Technical & hardware support : Manuel Goepfert

Contact : metmap@orbifly.com




SOURCES & CREDITS :

   NOAA